Time;durP1;ratioP1;P1;durP2;ratioP2;P2;SDS_P1;SDS_P2;PMS_P1;PMS_P2;Temp;Humidity;BMP_temperature;BMP_pressure;BME280_temperature;BME280_humidity;BME280_pressure;Samples;Min_cycle;Max_cycle;Signal;HPM_P1;HPM_P2
2023/08/08 00:01:24;;;;;;;1.80;1.60;;;;;;;19.70;86.90;94711.66;5092446;28;20463;-72
2023/08/08 00:03:50;;;;;;;3.00;2.70;;;;;;;19.70;86.48;94709.00;5092388;28;20461;-73
2023/08/08 00:06:17;;;;;;;6.57;1.87;;;;;;;19.57;86.06;94710.69;5091893;28;20487;-73
2023/08/08 00:08:44;;;;;;;1.93;1.83;;;;;;;19.56;86.70;94714.34;5094582;28;20449;-72
2023/08/08 00:11:12;;;;;;;2.67;2.47;;;;;;;19.46;88.28;94706.66;5096037;28;20812;-73
2023/08/08 00:13:39;;;;;;;2.07;1.90;;;;;;;19.35;89.46;94715.13;5095906;28;20918;-73
2023/08/08 00:16:08;;;;;;;2.83;1.93;;;;;;;19.30;90.14;94707.72;5095951;28;20439;-72
2023/08/08 00:18:38;;;;;;;3.67;2.47;;;;;;;19.23;89.87;94708.66;5095787;28;20449;-72
2023/08/08 00:21:05;;;;;;;2.70;2.50;;;;;;;19.08;88.76;94706.00;5077395;28;20445;-73
2023/08/08 00:23:32;;;;;;;4.53;2.60;;;;;;;19.06;88.93;94714.19;5059899;28;20437;-72
2023/08/08 00:25:59;;;;;;;4.00;3.37;;;;;;;19.03;89.41;94717.22;5096086;28;20476;-73
2023/08/08 00:28:30;;;;;;;3.20;2.90;;;;;;;19.06;89.35;94724.00;5095808;28;20445;-73
2023/08/08 00:30:57;;;;;;;2.47;2.27;;;;;;;19.11;88.90;94735.75;5095598;28;20445;-73
2023/08/08 00:33:23;;;;;;;3.30;2.47;;;;;;;19.16;87.44;94728.03;5096009;28;20445;-72
2023/08/08 00:35:50;;;;;;;2.00;1.90;;;;;;;19.26;87.03;94732.22;5095627;28;20452;-73
2023/08/08 00:38:18;;;;;;;2.37;1.87;;;;;;;19.32;87.86;94731.47;5095625;28;20458;-73
2023/08/08 00:40:45;;;;;;;2.00;1.80;;;;;;;19.39;85.80;94732.38;5095697;28;20996;-73
2023/08/08 00:43:12;;;;;;;2.23;1.90;;;;;;;19.49;86.36;94730.22;5095538;28;20444;-73
2023/08/08 00:45:43;;;;;;;1.73;1.60;;;;;;;19.53;85.06;94734.19;5095798;28;20803;-72
2023/08/08 00:48:10;;;;;;;2.00;1.90;;;;;;;19.58;84.21;94728.31;5095659;28;20955;-73
2023/08/08 00:50:38;;;;;;;2.17;1.80;;;;;;;19.53;84.28;94728.00;5095555;28;20433;-72
2023/08/08 00:53:05;;;;;;;3.70;1.87;;;;;;;19.32;82.41;94726.97;5059890;28;20432;-73
2023/08/08 00:55:32;;;;;;;2.10;1.80;;;;;;;19.25;82.08;94741.22;5059654;28;20435;-73
2023/08/08 00:58:00;;;;;;;2.27;1.97;;;;;;;19.20;82.35;94739.13;5095315;28;20448;-73
2023/08/08 01:00:27;;;;;;;3.23;2.10;;;;;;;19.02;82.74;94731.53;5095448;28;20464;-72
2023/08/08 01:02:57;;;;;;;2.90;2.40;;;;;;;18.75;82.34;94726.88;5095442;28;20469;-73
2023/08/08 01:05:24;;;;;;;4.00;2.03;;;;;;;18.54;83.40;94732.91;5095248;28;20477;-73
2023/08/08 01:07:58;;;;;;;2.23;2.13;;;;;;;18.46;85.16;94725.00;5095082;28;20449;-73
2023/08/08 01:10:29;;;;;;;2.50;2.30;;;;;;;18.46;84.31;94719.69;5095336;28;20444;-72
2023/08/08 01:13:05;;;;;;;2.30;2.13;;;;;;;18.27;84.52;94721.06;5095257;28;20440;-73
2023/08/08 01:15:35;;;;;;;2.20;2.10;;;;;;;18.22;84.81;94739.38;5095131;28;20445;-72
2023/08/08 01:18:05;;;;;;;2.30;2.10;;;;;;;18.18;86.43;94730.91;5095189;28;21145;-73
2023/08/08 01:20:33;;;;;;;2.27;2.07;;;;;;;18.07;85.31;94739.31;5094233;28;20445;-73
2023/08/08 01:23:11;;;;;;;2.53;2.10;;;;;;;18.14;85.71;94745.56;5095137;28;20439;-73
2023/08/08 01:25:40;;;;;;;2.80;2.43;;;;;;;18.17;84.60;94747.03;5094695;28;20456;-73
2023/08/08 01:28:08;;;;;;;3.43;2.17;;;;;;;18.09;85.48;94747.94;5058928;28;20947;-73
2023/08/08 01:30:35;;;;;;;3.50;2.37;;;;;;;18.03;85.44;94758.44;5094785;28;20436;-73
2023/08/08 01:33:02;;;;;;;2.50;2.30;;;;;;;18.01;86.65;94755.16;5094693;28;20442;-73
2023/08/08 01:35:32;;;;;;;2.20;2.00;;;;;;;17.90;85.62;94746.59;5094784;28;20784;-73
2023/08/08 01:38:06;;;;;;;1.80;1.70;;;;;;;17.73;86.28;94754.88;5094809;28;20447;-74
2023/08/08 01:40:34;;;;;;;1.90;1.80;;;;;;;17.86;89.01;94747.13;5094690;28;20469;-73
2023/08/08 01:43:05;;;;;;;2.43;2.20;;;;;;;18.01;89.40;94757.81;5094565;28;20440;-72
2023/08/08 01:45:36;;;;;;;2.30;2.10;;;;;;;18.00;85.84;94764.13;5094414;28;20483;-72
2023/08/08 01:48:08;;;;;;;2.10;2.00;;;;;;;17.87;85.25;94768.19;5094817;28;20449;-73
2023/08/08 01:50:35;;;;;;;2.77;2.10;;;;;;;17.94;87.16;94784.25;5094533;28;21253;-73
2023/08/08 01:53:02;;;;;;;2.13;1.93;;;;;;;17.70;85.55;94790.56;5094579;28;20452;-73
2023/08/08 01:55:29;;;;;;;2.90;2.50;;;;;;;17.61;86.13;94789.72;5094578;28;20878;-73
2023/08/08 01:57:55;;;;;;;2.20;2.03;;;;;;;17.57;86.97;94795.56;5093986;28;20448;-72
2023/08/08 02:00:24;;;;;;;4.07;2.50;;;;;;;17.53;87.00;94799.56;5094009;28;20493;-73
2023/08/08 02:02:51;;;;;;;2.37;2.27;;;;;;;17.49;87.33;94811.53;5094153;28;20450;-73
2023/08/08 02:05:17;;;;;;;3.67;2.37;;;;;;;17.44;87.63;94795.31;5093902;28;20428;-73
2023/08/08 02:07:44;;;;;;;3.77;2.80;;;;;;;17.43;88.08;94796.31;5094099;28;20487;-73
2023/08/08 02:10:11;;;;;;;2.50;2.30;;;;;;;17.41;87.73;94806.28;5093831;28;20816;-72
2023/08/08 02:12:38;;;;;;;2.57;2.37;;;;;;;17.48;87.99;94801.94;5094097;28;20450;-73
2023/08/08 02:15:06;;;;;;;2.27;2.07;;;;;;;17.47;86.93;94797.63;5058251;28;20439;-73
2023/08/08 02:17:38;;;;;;;2.47;2.27;;;;;;;17.44;87.41;94795.31;5093793;28;20450;-73
2023/08/08 02:20:06;;;;;;;3.70;2.10;;;;;;;17.51;88.27;94801.56;5057970;28;20498;-73
2023/08/08 02:22:33;;;;;;;2.70;2.50;;;;;;;17.43;87.04;94809.59;5093805;28;20456;-73
2023/08/08 02:25:00;;;;;;;2.43;2.23;;;;;;;17.42;87.79;94823.84;5093459;28;20444;-73
2023/08/08 02:27:26;;;;;;;2.40;2.20;;;;;;;17.40;87.40;94823.19;5093427;28;20824;-73
2023/08/08 02:29:53;;;;;;;2.43;2.23;;;;;;;17.37;86.95;94832.34;5093425;28;20492;-72
2023/08/08 02:32:20;;;;;;;2.53;2.33;;;;;;;17.43;88.22;94839.59;5074287;28;20485;-72
2023/08/08 02:34:49;;;;;;;4.03;2.23;;;;;;;17.37;86.46;94831.50;5093407;28;20928;-73
2023/08/08 02:37:16;;;;;;;2.67;2.23;;;;;;;17.24;86.76;94824.09;5093438;28;20843;-73
2023/08/08 02:39:44;;;;;;;3.60;2.80;;;;;;;17.16;87.52;94814.34;5093789;28;20442;-74
2023/08/08 02:42:11;;;;;;;2.83;2.63;;;;;;;17.28;89.79;94815.59;5057930;28;20443;-73
2023/08/08 02:44:38;;;;;;;2.50;2.30;;;;;;;17.34;88.27;94830.00;5093578;28;20493;-73
2023/08/08 02:47:05;;;;;;;2.53;2.33;;;;;;;17.36;87.83;94843.94;5073984;28;20497;-73
2023/08/08 02:49:33;;;;;;;2.80;2.60;;;;;;;17.37;87.59;94850.06;5093321;28;20459;-73
2023/08/08 02:52:01;;;;;;;2.70;2.50;;;;;;;17.38;88.24;94855.22;5093172;28;20527;-73
2023/08/08 02:54:28;;;;;;;2.77;2.57;;;;;;;17.28;88.15;94841.31;5093035;28;20442;-73
2023/08/08 02:56:55;;;;;;;2.73;2.53;;;;;;;17.30;87.78;94845.44;5093307;28;20458;-73
2023/08/08 02:59:22;;;;;;;2.40;2.20;;;;;;;17.40;88.13;94847.06;5073857;28;20428;-73
2023/08/08 03:01:49;;;;;;;4.37;2.90;;;;;;;17.41;87.32;94857.50;5092977;28;20457;-72
2023/08/08 03:04:16;;;;;;;2.90;2.70;;;;;;;17.31;87.71;94860.34;5093190;28;20465;-73
2023/08/08 03:06:42;;;;;;;3.47;3.17;;;;;;;17.20;88.07;94852.78;5092746;28;20484;-73
2023/08/08 03:09:11;;;;;;;3.10;2.80;;;;;;;17.38;90.94;94855.22;5073955;28;20432;-73
2023/08/08 03:11:41;;;;;;;3.60;3.30;;;;;;;17.43;88.31;94857.34;5093139;28;20444;-72
2023/08/08 03:14:08;;;;;;;3.60;3.07;;;;;;;17.39;87.36;94858.69;5092850;28;20447;-73
2023/08/08 03:16:35;;;;;;;3.90;2.63;;;;;;;17.41;86.95;94862.81;5092859;28;20447;-73
2023/08/08 03:19:01;;;;;;;6.40;3.47;;;;;;;17.45;86.89;94863.28;5092723;28;20461;-73
2023/08/08 03:21:28;;;;;;;3.17;2.90;;;;;;;17.38;86.58;94852.56;5092733;28;20448;-73
2023/08/08 03:23:55;;;;;;;3.07;2.87;;;;;;;17.30;86.71;94849.91;5093012;28;21007;-73
2023/08/08 03:26:23;;;;;;;4.07;3.67;;;;;;;17.32;88.37;94859.34;5092878;28;20436;-73
2023/08/08 03:28:53;;;;;;;3.83;3.53;;;;;;;17.39;86.88;94864.00;5092797;28;20442;-73
2023/08/08 03:31:20;;;;;;;4.17;3.33;;;;;;;17.42;86.41;94861.81;5092911;28;20447;-73
2023/08/08 03:33:47;;;;;;;3.40;3.20;;;;;;;17.49;85.73;94870.72;5092793;28;20448;-73
2023/08/08 03:36:14;;;;;;;3.20;2.90;;;;;;;17.52;87.34;94880.16;5093092;28;20576;-73
2023/08/08 03:38:44;;;;;;;3.80;3.50;;;;;;;17.46;87.92;94870.25;5092960;28;20537;-73
2023/08/08 03:41:11;;;;;;;3.93;3.20;;;;;;;17.45;86.31;94880.03;5091963;28;20475;-73
2023/08/08 03:43:39;;;;;;;3.77;3.40;;;;;;;17.43;88.13;94876.72;5092171;28;20443;-73
2023/08/08 03:46:06;;;;;;;3.10;2.90;;;;;;;17.38;86.94;94883.56;5089391;28;20443;-73
2023/08/08 03:48:32;;;;;;;4.07;3.60;;;;;;;17.49;87.56;94888.47;5086959;28;20482;-73
2023/08/08 03:50:59;;;;;;;4.40;4.10;;;;;;;17.45;86.12;94884.53;5095960;28;20438;-73
2023/08/08 03:53:26;;;;;;;4.00;3.60;;;;;;;17.50;88.68;94883.00;5096022;28;20442;-73
2023/08/08 03:55:53;;;;;;;4.93;3.80;;;;;;;17.55;86.24;94880.66;5095676;28;20447;-73
2023/08/08 03:58:20;;;;;;;3.73;3.53;;;;;;;17.57;85.97;94873.34;5095557;28;20921;-72
2023/08/08 04:00:48;;;;;;;3.63;3.27;;;;;;;17.64;86.68;94865.53;5095522;28;20908;-72
2023/08/08 04:03:15;;;;;;;4.27;3.97;;;;;;;17.63;85.37;94871.81;5096336;28;20446;-73
2023/08/08 04:05:46;;;;;;;4.17;3.77;;;;;;;17.75;86.70;94878.44;5096458;28;20435;-73
2023/08/08 04:08:12;;;;;;;3.53;3.33;;;;;;;17.72;84.98;94883.28;5096369;28;21030;-73
2023/08/08 04:10:39;;;;;;;4.10;3.73;;;;;;;17.75;84.80;94886.41;5060488;28;20488;-75
2023/08/08 04:13:06;;;;;;;3.80;3.50;;;;;;;17.80;84.43;94894.66;5077430;28;20440;-73
2023/08/08 04:15:33;;;;;;;4.37;4.03;;;;;;;17.81;84.51;94906.94;5096435;28;20783;-73
2023/08/08 04:18:01;;;;;;;4.63;4.07;;;;;;;17.73;84.58;94914.13;5096175;28;20450;-74
2023/08/08 04:20:28;;;;;;;10.60;3.93;;;;;;;17.78;87.35;94917.06;5096707;28;20978;-74
2023/08/08 04:22:54;;;;;;;4.00;3.80;;;;;;;17.82;85.87;94913.91;5096274;28;20445;-74
2023/08/08 04:25:21;;;;;;;4.27;3.90;;;;;;;17.87;84.40;94914.19;5060564;28;20441;-73
2023/08/08 04:27:48;;;;;;;4.70;4.30;;;;;;;17.73;84.49;94925.56;5095748;28;21011;-73
2023/08/08 04:30:15;;;;;;;4.60;4.30;;;;;;;17.73;88.15;94928.22;5096067;28;20929;-73
2023/08/08 04:32:42;;;;;;;5.40;5.03;;;;;;;17.83;84.95;94923.50;5096221;28;20448;-73
2023/08/08 04:35:10;;;;;;;57.83;29.37;;;;;;;17.95;88.17;94924.78;5010927;28;20442;-73
2023/08/08 04:37:37;;;;;;;27.07;18.10;;;;;;;18.21;87.31;94928.94;5096052;28;20450;-73
2023/08/08 04:40:04;;;;;;;59.80;31.27;;;;;;;18.23;85.92;94938.41;5095010;28;20787;-73
2023/08/08 04:42:31;;;;;;;17.50;11.50;;;;;;;18.31;83.13;94934.03;5076503;28;20482;-74
2023/08/08 04:44:58;;;;;;;50.37;26.77;;;;;;;18.29;88.08;94939.53;5095036;28;20436;-74
2023/08/08 04:47:24;;;;;;;20.80;12.33;;;;;;;18.57;86.00;94931.84;5059748;28;20483;-72
2023/08/08 04:49:52;;;;;;;9.30;7.07;;;;;;;18.67;82.94;94939.63;5059974;28;20865;-73
2023/08/08 04:52:20;;;;;;;5.80;5.10;;;;;;;18.64;80.70;94942.63;5095572;28;20437;-72
2023/08/08 04:54:47;;;;;;;4.63;4.23;;;;;;;18.58;79.49;94941.47;5059840;28;20923;-73
2023/08/08 04:57:16;;;;;;;54.93;31.77;;;;;;;18.61;83.31;94935.81;5094779;28;20447;-73
2023/08/08 04:59:43;;;;;;;108.77;33.87;;;;;;;19.88;88.47;94918.09;5082755;28;20944;-73
2023/08/08 05:02:10;;;;;;;45.40;21.07;;;;;;;20.95;79.91;94921.69;5095293;28;20877;-72
2023/08/08 05:04:37;;;;;;;4.20;3.90;;;;;;;21.30;70.87;94935.94;5095174;28;20828;-73
2023/08/08 05:07:04;;;;;;;8.03;3.90;;;;;;;21.08;68.43;94943.13;5091644;28;20484;-73
2023/08/08 05:09:32;;;;;;;6.93;6.33;;;;;;;20.86;71.58;94953.03;5094826;28;20471;-73
2023/08/08 05:11:59;;;;;;;7.47;5.30;;;;;;;20.75;70.38;94958.03;5095191;28;20449;-72
2023/08/08 05:14:26;;;;;;;11.30;7.50;;;;;;;20.59;72.03;94969.78;5092661;28;20494;-73
2023/08/08 05:16:52;;;;;;;6.13;4.07;;;;;;;20.27;72.07;94974.53;5094927;28;20447;-73
2023/08/08 05:19:19;;;;;;;7.60;4.93;;;;;;;19.97;72.58;94980.91;5075784;28;20442;-75
2023/08/08 05:21:46;;;;;;;11.10;9.93;;;;;;;19.92;78.24;94977.97;5067392;28;21146;-74
2023/08/08 05:24:13;;;;;;;6.87;4.83;;;;;;;20.45;73.11;94983.97;5089871;28;20451;-74
2023/08/08 05:26:41;;;;;;;4.20;3.90;;;;;;;20.27;71.51;94993.19;5095102;28;20760;-74
2023/08/08 05:29:08;;;;;;;10.63;6.90;;;;;;;20.17;77.95;95005.97;5094441;28;20973;-73
2023/08/08 05:31:35;;;;;;;5.40;3.90;;;;;;;19.98;71.71;95011.88;5076084;28;20950;-74
2023/08/08 05:34:02;;;;;;;5.53;4.90;;;;;;;19.81;73.73;95003.22;5053827;28;20870;-75
2023/08/08 05:36:28;;;;;;;6.13;4.30;;;;;;;19.73;73.59;95004.16;5094912;28;20523;-74
2023/08/08 05:38:55;;;;;;;3.93;3.63;;;;;;;19.80;71.63;95002.41;5087054;28;20469;-75
2023/08/08 05:41:22;;;;;;;3.40;3.10;;;;;;;19.53;71.89;95013.69;5074856;28;20450;-75
2023/08/08 05:43:50;;;;;;;3.90;3.60;;;;;;;19.55;72.44;95019.66;5078336;28;20439;-74
2023/08/08 05:46:17;;;;;;;3.73;3.43;;;;;;;19.58;72.96;95019.28;5094889;28;20450;-74
2023/08/08 05:48:44;;;;;;;5.20;3.70;;;;;;;19.79;72.55;95011.41;5094288;28;20490;-74
2023/08/08 05:51:10;;;;;;;3.73;3.53;;;;;;;19.99;70.47;95026.84;5094766;28;20450;-74
2023/08/08 05:53:38;;;;;;;4.60;4.20;;;;;;;20.33;70.24;95018.25;5094252;28;20436;-73
2023/08/08 05:56:05;;;;;;;3.93;3.63;;;;;;;20.46;69.05;95023.75;5094897;28;20475;-74
2023/08/08 05:58:32;;;;;;;3.20;3.00;;;;;;;20.71;68.36;95026.91;5094692;28;20442;-75
2023/08/08 06:01:00;;;;;;;3.77;3.27;;;;;;;21.25;68.58;95027.28;5094331;28;20581;-75
2023/08/08 06:03:27;;;;;;;4.17;3.80;;;;;;;21.59;66.05;95031.84;5094598;28;20443;-74
2023/08/08 06:05:54;;;;;;;3.73;3.33;;;;;;;22.05;63.51;95031.38;5093275;28;20441;-74
2023/08/08 06:08:21;;;;;;;3.77;2.93;;;;;;;22.01;62.50;95026.59;5093852;28;20512;-74
2023/08/08 06:10:48;;;;;;;3.60;3.40;;;;;;;21.57;62.76;95039.25;5094190;28;20475;-74
2023/08/08 06:13:14;;;;;;;4.30;3.90;;;;;;;21.13;65.11;95036.78;5058326;28;20459;-74
2023/08/08 06:15:41;;;;;;;4.40;4.00;;;;;;;20.53;66.41;95026.50;5058152;28;20439;-74
2023/08/08 06:18:09;;;;;;;4.10;3.80;;;;;;;20.60;67.11;95038.09;5094075;28;20914;-74
2023/08/08 06:20:36;;;;;;;4.50;4.20;;;;;;;20.90;66.98;95044.97;5093635;28;20448;-74
2023/08/08 06:23:03;;;;;;;4.43;4.17;;;;;;;21.08;65.05;95038.38;5093819;28;20447;-74
2023/08/08 06:25:30;;;;;;;4.13;3.80;;;;;;;21.29;64.37;95043.72;5073810;28;20447;-74
2023/08/08 06:27:57;;;;;;;5.07;4.50;;;;;;;21.43;63.81;95037.50;5092597;28;20495;-74
2023/08/08 06:30:26;;;;;;;4.40;4.10;;;;;;;21.81;62.82;95039.81;5092766;28;20514;-74
2023/08/08 06:32:53;;;;;;;5.20;3.90;;;;;;;22.02;60.55;95041.59;5092412;28;20476;-74
2023/08/08 06:35:21;;;;;;;4.23;3.73;;;;;;;22.05;60.11;95036.72;5092551;28;20441;-74
2023/08/08 06:37:48;;;;;;;3.67;3.07;;;;;;;21.97;58.05;95023.47;5092641;28;20453;-74
2023/08/08 06:40:16;;;;;;;7.90;3.57;;;;;;;22.05;59.28;95028.69;5092769;28;20473;-74
2023/08/08 06:42:43;;;;;;;5.93;3.60;;;;;;;22.24;58.22;95032.47;5092262;28;20435;-74
2023/08/08 06:45:10;;;;;;;3.50;3.23;;;;;;;22.21;56.73;95036.38;5092180;28;20446;-74
2023/08/08 06:47:37;;;;;;;2.97;2.77;;;;;;;22.16;55.93;95035.34;5091981;28;20497;-74
2023/08/08 06:50:05;;;;;;;3.27;3.07;;;;;;;22.31;56.59;95029.88;5056404;28;20446;-74
2023/08/08 06:52:33;;;;;;;4.83;4.00;;;;;;;22.44;55.69;95040.59;5092277;28;20432;-74
2023/08/08 06:55:00;;;;;;;2.97;2.77;;;;;;;22.75;54.90;95053.47;5091970;28;20446;-73
2023/08/08 06:57:27;;;;;;;2.97;2.77;;;;;;;22.85;55.66;95046.78;5056709;28;20442;-75
2023/08/08 06:59:54;;;;;;;3.37;3.07;;;;;;;22.83;54.17;95039.94;5091988;28;20516;-75
2023/08/08 07:02:23;;;;;;;3.33;3.13;;;;;;;22.66;55.66;95038.63;5091881;28;20465;-75
2023/08/08 07:04:51;;;;;;;3.83;3.30;;;;;;;22.39;56.26;95041.22;5092273;28;20478;-75
2023/08/08 07:07:18;;;;;;;6.60;3.43;;;;;;;22.09;57.89;95037.97;5092161;28;20451;-75
2023/08/08 07:09:46;;;;;;;3.87;3.10;;;;;;;21.77;57.69;95043.91;5092242;28;20449;-76
2023/08/08 07:12:13;;;;;;;3.10;2.60;;;;;;;21.53;59.05;95031.81;5092328;28;20443;-76
2023/08/08 07:14:40;;;;;;;3.33;2.70;;;;;;;21.49;57.42;95043.91;5091436;28;20927;-75
2023/08/08 07:17:06;;;;;;;2.97;2.77;;;;;;;21.24;56.20;95038.97;5091522;28;20446;-75
2023/08/08 07:19:33;;;;;;;3.03;2.83;;;;;;;21.24;55.91;95036.31;5055809;28;20442;-75
2023/08/08 07:22:00;;;;;;;4.20;2.60;;;;;;;21.51;54.81;95040.03;5091776;28;20902;-75
2023/08/08 07:24:28;;;;;;;4.23;2.57;;;;;;;21.75;54.55;95043.28;5092164;28;20445;-75
2023/08/08 07:26:56;;;;;;;4.60;2.67;;;;;;;22.04;54.94;95048.44;5091601;28;20442;-76
2023/08/08 07:29:23;;;;;;;2.30;2.20;;;;;;;22.20;55.26;95045.44;5055778;28;20489;-74
2023/08/08 07:31:50;;;;;;;3.33;3.03;;;;;;;22.07;53.46;95045.38;5091884;28;20529;-75
2023/08/08 07:34:17;;;;;;;3.10;2.80;;;;;;;22.16;53.34;95046.03;5091620;28;20449;-75
2023/08/08 07:36:43;;;;;;;2.70;2.50;;;;;;;22.22;52.93;95050.56;5091949;28;20441;-75
2023/08/08 07:39:10;;;;;;;2.70;2.50;;;;;;;22.26;51.85;95038.47;5091492;28;20512;-75
2023/08/08 07:41:37;;;;;;;3.10;2.80;;;;;;;22.53;51.90;95047.41;5091768;28;20716;-75
2023/08/08 07:44:06;;;;;;;2.03;1.93;;;;;;;22.65;50.14;95051.19;5090937;28;20441;-76
2023/08/08 07:46:33;;;;;;;2.67;2.07;;;;;;;22.74;48.78;95041.13;5091901;28;20445;-75
2023/08/08 07:49:03;;;;;;;2.07;1.87;;;;;;;22.74;49.42;95036.59;5091892;28;20485;-75
2023/08/08 07:51:30;;;;;;;2.20;2.10;;;;;;;22.56;49.61;95055.06;5091242;28;20947;-75
2023/08/08 07:53:57;;;;;;;2.00;1.90;;;;;;;22.36;50.24;95054.16;5072768;28;20444;-75
2023/08/08 07:56:24;;;;;;;2.33;2.13;;;;;;;22.08;51.80;95043.53;5091202;28;20445;-76
2023/08/08 07:58:51;;;;;;;2.30;2.10;;;;;;;22.06;52.95;95057.09;5072337;28;20941;-75
2023/08/08 08:01:19;;;;;;;2.43;1.90;;;;;;;22.01;51.60;95056.81;5091510;28;20473;-75
2023/08/08 08:03:46;;;;;;;2.30;2.10;;;;;;;21.61;52.13;95051.19;5092001;28;20476;-75
2023/08/08 08:06:13;;;;;;;2.17;2.07;;;;;;;21.51;52.54;95048.03;5093919;28;20862;-75
2023/08/08 08:08:43;;;;;;;3.50;2.00;;;;;;;21.88;53.48;95046.03;5090400;28;21063;-75
2023/08/08 08:11:10;;;;;;;2.33;2.13;;;;;;;21.93;52.16;95039.06;5055454;28;20444;-76
2023/08/08 08:13:37;;;;;;;3.60;2.40;;;;;;;21.85;52.39;95049.09;5091343;28;20447;-75
2023/08/08 08:16:05;;;;;;;2.30;2.10;;;;;;;21.87;52.87;95033.69;5091042;28;20454;-75
2023/08/08 08:18:33;;;;;;;4.00;2.07;;;;;;;21.92;53.22;95032.06;5091215;28;20446;-75
2023/08/08 08:21:00;;;;;;;7.40;2.00;;;;;;;22.21;50.62;95046.25;5091141;28;20788;-75
2023/08/08 08:23:27;;;;;;;3.17;2.40;;;;;;;22.43;52.35;95039.78;5090912;28;20486;-75
2023/08/08 08:25:55;;;;;;;2.07;1.90;;;;;;;22.64;49.38;95046.88;5091342;28;20482;-75
2023/08/08 08:28:22;;;;;;;2.20;2.10;;;;;;;22.91;48.68;95052.34;5091578;28;20569;-75
2023/08/08 08:30:49;;;;;;;2.83;2.37;;;;;;;22.71;49.26;95047.72;5094939;28;20450;-75
2023/08/08 08:33:16;;;;;;;2.10;1.90;;;;;;;22.55;49.00;95032.00;5094921;28;20477;-75
2023/08/08 08:35:45;;;;;;;2.03;1.87;;;;;;;22.83;48.47;95034.59;5094773;28;20445;-74
2023/08/08 08:38:12;;;;;;;2.07;1.97;;;;;;;22.47;48.85;95034.84;5094799;28;20447;-74
2023/08/08 08:40:43;;;;;;;2.63;2.43;;;;;;;22.63;50.31;95028.34;5094769;28;20445;-74
2023/08/08 08:43:11;;;;;;;6.20;2.30;;;;;;;22.53;51.37;95034.03;5094765;28;20468;-75
2023/08/08 08:45:40;;;;;;;2.30;2.10;;;;;;;22.36;50.44;95033.59;5094507;28;20812;-74
2023/08/08 08:48:11;;;;;;;2.87;2.23;;;;;;;22.45;51.05;95031.56;5075772;28;20450;-74
2023/08/08 08:50:40;;;;;;;2.33;2.00;;;;;;;22.70;50.15;95027.34;5094296;28;20469;-75
2023/08/08 08:53:09;;;;;;;4.43;2.30;;;;;;;22.88;50.35;95018.78;5094706;28;20441;-75
2023/08/08 08:55:36;;;;;;;2.47;2.27;;;;;;;22.90;50.47;95029.28;5094401;28;20444;-74
2023/08/08 08:58:05;;;;;;;2.80;2.30;;;;;;;22.91;50.71;95025.56;5094763;28;20441;-74
2023/08/08 09:00:35;;;;;;;2.50;2.37;;;;;;;22.76;50.79;95029.19;5094580;28;20474;-74
2023/08/08 09:03:02;;;;;;;3.00;2.80;;;;;;;22.73;51.10;95029.59;5094040;28;20447;-74
2023/08/08 09:05:30;;;;;;;7.83;2.40;;;;;;;22.59;51.15;95027.94;5094361;28;20446;-75
2023/08/08 09:07:56;;;;;;;2.57;2.37;;;;;;;22.48;51.50;95031.16;5094229;28;20443;-75
2023/08/08 09:10:25;;;;;;;2.83;2.63;;;;;;;22.55;51.68;95032.00;5094813;28;20823;-74
2023/08/08 09:12:53;;;;;;;2.87;2.67;;;;;;;22.64;51.57;95040.69;5095273;28;20451;-79
2023/08/08 09:36:03;;;;;;;2.77;2.57;;;;;;;22.73;50.42;95039.47;5090072;27;20540;-73
2023/08/08 09:38:30;;;;;;;2.87;2.67;;;;;;;22.84;48.83;95045.13;5089858;28;20478;-73
2023/08/08 09:40:57;;;;;;;3.30;3.00;;;;;;;22.92;49.42;95045.94;5090048;28;20441;-72
2023/08/08 09:43:26;;;;;;;4.67;2.50;;;;;;;23.03;49.26;95046.16;5054633;28;20476;-73
2023/08/08 09:45:53;;;;;;;3.17;2.97;;;;;;;23.07;50.18;95038.56;5071630;28;20445;-73
2023/08/08 09:48:20;;;;;;;2.50;2.40;;;;;;;23.02;48.95;95051.72;5090057;28;20444;-74
2023/08/08 09:50:48;;;;;;;2.93;2.73;;;;;;;22.95;49.16;95048.22;5089897;28;20478;-73
2023/08/08 09:53:18;;;;;;;4.47;2.50;;;;;;;23.09;50.02;95052.56;5090049;28;20799;-73
2023/08/08 09:55:45;;;;;;;2.30;2.20;;;;;;;23.14;48.73;95048.28;5089850;28;20486;-74
2023/08/08 09:58:13;;;;;;;2.90;2.70;;;;;;;23.30;48.56;95047.03;5089831;28;20449;-73
2023/08/08 10:00:42;;;;;;;2.40;2.20;;;;;;;23.32;47.91;95044.97;5054169;28;20431;-74
2023/08/08 10:03:09;;;;;;;2.60;2.40;;;;;;;23.24;47.39;95037.16;5089679;28;20447;-73
2023/08/08 10:05:37;;;;;;;3.97;2.40;;;;;;;23.07;48.57;95041.22;5053935;28;20964;-73
2023/08/08 10:08:04;;;;;;;3.43;2.63;;;;;;;23.12;48.95;95052.16;5078703;28;20925;-73
2023/08/08 10:10:32;;;;;;;2.53;2.33;;;;;;;23.07;48.00;95042.06;5088939;28;20453;-72
2023/08/08 10:13:00;;;;;;;2.73;2.53;;;;;;;22.93;47.31;95044.94;5088886;28;20440;-73
2023/08/08 10:15:27;;;;;;;3.00;2.80;;;;;;;22.90;47.20;95048.00;5088834;28;20494;-72
2023/08/08 10:17:56;;;;;;;2.33;2.13;;;;;;;22.82;47.14;95038.28;5081011;28;20962;-72
2023/08/08 10:20:25;;;;;;;2.20;2.10;;;;;;;22.88;47.89;95042.03;5075974;28;20446;-73
2023/08/08 10:22:54;;;;;;;2.90;2.70;;;;;;;22.88;48.31;95048.22;5063595;28;20812;-72
2023/08/08 10:25:27;;;;;;;2.70;2.33;;;;;;;22.96;47.66;95036.50;5083302;28;20457;-71
2023/08/08 10:28:10;;;;;;;2.53;2.33;;;;;;;23.04;47.19;95034.44;5067832;28;20876;-73
2023/08/08 10:30:47;;;;;;;2.70;2.50;;;;;;;23.08;47.51;95030.31;5080715;28;20448;-73
2023/08/08 10:33:18;;;;;;;3.27;2.97;;;;;;;23.09;47.18;95025.78;5070222;28;20506;-73
2023/08/08 10:35:56;;;;;;;3.23;2.80;;;;;;;23.11;47.67;95029.09;5087894;28;20914;-72
2023/08/08 10:38:23;;;;;;;2.40;2.30;;;;;;;23.15;45.47;95017.78;5076356;28;20439;-73
2023/08/08 10:40:56;;;;;;;2.90;2.70;;;;;;;23.21;46.91;95026.84;5074535;28;20446;-73
2023/08/08 10:43:29;;;;;;;3.23;2.53;;;;;;;23.25;47.37;95012.03;5077095;28;21028;-74
2023/08/08 10:46:00;;;;;;;3.40;3.20;;;;;;;23.34;48.42;94999.25;5081168;28;20440;-72
2023/08/08 10:48:27;;;;;;;2.67;2.47;;;;;;;23.47;47.27;95010.78;5071428;28;20490;-72
2023/08/08 10:50:55;;;;;;;2.73;2.60;;;;;;;23.53;47.12;95002.97;5073584;28;20491;-73
2023/08/08 10:53:26;;;;;;;2.90;2.70;;;;;;;23.35;47.45;95004.41;5034222;28;20447;-72
2023/08/08 10:56:00;;;;;;;3.30;3.10;;;;;;;23.19;47.44;94996.78;5064439;28;20486;-72
2023/08/08 10:58:38;;;;;;;3.10;2.90;;;;;;;23.01;48.24;94989.34;5073185;28;20466;-73
2023/08/08 11:01:07;;;;;;;6.50;2.67;;;;;;;22.97;48.25;95000.66;5073680;28;20844;-73
2023/08/08 11:03:36;;;;;;;2.70;2.50;;;;;;;23.09;49.03;94999.84;5073710;28;20818;-73
2023/08/08 11:06:04;;;;;;;3.00;2.80;;;;;;;23.11;48.65;94992.44;5073887;28;20454;-73
2023/08/08 11:08:31;;;;;;;3.07;2.87;;;;;;;23.10;49.20;94992.63;5073384;28;20442;-72
2023/08/08 11:10:59;;;;;;;3.20;2.90;;;;;;;23.23;48.73;94991.84;5073217;28;20443;-73
2023/08/08 11:13:26;;;;;;;2.43;2.33;;;;;;;23.22;47.59;94996.38;5073328;28;20442;-73
2023/08/08 11:15:54;;;;;;;3.60;2.67;;;;;;;23.26;48.43;94994.09;5067372;28;20494;-72
2023/08/08 11:18:21;;;;;;;2.90;2.70;;;;;;;23.25;48.13;94995.97;5072834;28;20438;-72
2023/08/08 11:20:49;;;;;;;2.70;2.40;;;;;;;23.40;47.20;94987.69;5073677;28;20790;-72
2023/08/08 11:23:16;;;;;;;2.67;2.50;;;;;;;23.46;48.03;94987.72;5072772;28;20438;-73
2023/08/08 11:25:44;;;;;;;2.83;2.40;;;;;;;23.49;47.82;94981.13;5073644;28;20785;-73
2023/08/08 11:28:11;;;;;;;2.93;2.60;;;;;;;23.42;48.18;94983.00;5073240;28;20447;-72
2023/08/08 11:30:39;;;;;;;2.77;2.60;;;;;;;23.36;47.48;94989.97;5072510;28;20504;-72
2023/08/08 11:33:07;;;;;;;2.27;2.10;;;;;;;23.35;47.59;94985.66;5073656;28;20451;-73
2023/08/08 11:35:35;;;;;;;2.57;2.37;;;;;;;23.34;47.48;94997.38;5074243;28;20556;-73
2023/08/08 11:38:04;;;;;;;2.67;2.50;;;;;;;23.40;47.34;94995.75;5074030;28;20490;-73
2023/08/08 11:40:31;;;;;;;2.53;2.33;;;;;;;23.42;46.26;94999.06;5073922;28;20521;-73
2023/08/08 11:42:58;;;;;;;2.70;2.50;;;;;;;23.44;47.91;94983.59;5073830;28;20443;-73
2023/08/08 11:45:25;;;;;;;3.93;2.97;;;;;;;23.34;46.30;94975.97;5073731;28;20450;-73
2023/08/08 11:47:55;;;;;;;2.80;2.60;;;;;;;23.38;47.51;94985.22;5074107;28;20454;-73
2023/08/08 11:50:24;;;;;;;2.73;2.53;;;;;;;23.40;47.17;94979.66;5074176;28;20446;-73
2023/08/08 11:52:52;;;;;;;3.50;2.50;;;;;;;23.43;47.05;94980.09;5073732;28;21391;-73
2023/08/08 11:55:22;;;;;;;4.97;2.70;;;;;;;23.23;46.45;94981.13;5073765;28;20493;-73